RYR496E LEZL-GCFV
Flight info
| Callsign | RYR496E |
|---|---|
| Flight time | 1h 56m |
| Altitude | 38000 |
| Route | CLANA N857 KORNO UN857 TERTO |
| Aircraft | B738/M-SDE3FGILRWY/SB1 |
Departure
| Time | 2026-04-22 12:59 |
|---|---|
| Airport | Seville Airport (LEZL) |
Arrival
| Time | 2026-04-22 14:55 |
|---|---|
| Airport | Fuerteventura Airport (GCFV) |
| Time | Latitude | Longitude | Altitude | Speed | Heading |
|---|---|---|---|---|---|
| 2026-04-22 12:31 | 37.42243 | -5.89911 | 93 ft | 0 kts | 315° |
| 2026-04-22 12:51 | 37.42228 | -5.89893 | 95 ft | 4 kts | 323° |
| 2026-04-22 12:52 | 37.42205 | -5.89876 | 93 ft | 4 kts | 342° |
| 2026-04-22 12:52 | 37.42180 | -5.89872 | 93 ft | 4 kts | 17° |
| 2026-04-22 12:52 | 37.42165 | -5.89881 | 93 ft | 0 kts | 44° |
| 2026-04-22 12:54 | 37.42179 | -5.89864 | 93 ft | 7 kts | 44° |
| 2026-04-22 12:54 | 37.42244 | -5.89784 | 93 ft | 18 kts | 45° |
| 2026-04-22 12:54 | 37.42216 | -5.89654 | 95 ft | 18 kts | 135° |
| 2026-04-22 12:55 | 37.42121 | -5.89535 | 96 ft | 20 kts | 134° |
| 2026-04-22 12:55 | 37.42012 | -5.89395 | 98 ft | 24 kts | 134° |
| 2026-04-22 12:55 | 37.41982 | -5.89193 | 99 ft | 26 kts | 89° |
| 2026-04-22 12:55 | 37.41984 | -5.88945 | 101 ft | 29 kts | 90° |
| 2026-04-22 12:56 | 37.41985 | -5.88703 | 102 ft | 27 kts | 89° |
| 2026-04-22 12:56 | 37.41985 | -5.88477 | 103 ft | 25 kts | 90° |
| 2026-04-22 12:56 | 37.41986 | -5.88267 | 105 ft | 23 kts | 90° |
| 2026-04-22 12:56 | 37.41986 | -5.88068 | 105 ft | 23 kts | 90° |
| 2026-04-22 12:57 | 37.41987 | -5.87857 | 107 ft | 24 kts | 89° |
| 2026-04-22 12:57 | 37.41989 | -5.87656 | 108 ft | 23 kts | 89° |
| 2026-04-22 12:57 | 37.41959 | -5.87469 | 111 ft | 22 kts | 128° |
| 2026-04-22 12:57 | 37.41828 | -5.87434 | 116 ft | 15 kts | 187° |
| 2026-04-22 12:58 | 37.41803 | -5.87476 | 113 ft | 12 kts | 259° |
| 2026-04-22 12:58 | 37.41800 | -5.87617 | 112 ft | 23 kts | 269° |
| 2026-04-22 12:58 | 37.41798 | -5.88120 | 106 ft | 105 kts | 269° |
| 2026-04-22 12:58 | 37.41790 | -5.89396 | 129 ft | 181 kts | 271° |
| 2026-04-22 12:59 | 37.41795 | -5.90975 | 1273 ft | 175 kts | 268° |
| 2026-04-22 12:59 | 37.41696 | -5.92490 | 2379 ft | 183 kts | 275° |
| 2026-04-22 12:59 | 37.42335 | -5.94010 | 2864 ft | 219 kts | 319° |
| 2026-04-22 12:59 | 37.43600 | -5.95268 | 3219 ft | 242 kts | 308° |
| 2026-04-22 13:00 | 37.44168 | -5.97239 | 3920 ft | 248 kts | 271° |
| 2026-04-22 13:00 | 37.44178 | -5.99493 | 4500 ft | 265 kts | 270° |
| 2026-04-22 13:00 | 37.44229 | -6.01846 | 5507 ft | 270 kts | 268° |
| 2026-04-22 13:00 | 37.43803 | -6.04115 | 6671 ft | 269 kts | 240° |
| 2026-04-22 13:01 | 37.42604 | -6.05892 | 7865 ft | 267 kts | 216° |
| 2026-04-22 13:01 | 37.40960 | -6.06961 | 8981 ft | 268 kts | 197° |
| 2026-04-22 13:01 | 37.39122 | -6.07121 | 10037 ft | 272 kts | 179° |
| 2026-04-22 13:01 | 37.37193 | -6.06992 | 10764 ft | 288 kts | 180° |
| 2026-04-22 13:02 | 37.35082 | -6.06841 | 11001 ft | 319 kts | 179° |
| 2026-04-22 13:02 | 37.32801 | -6.06656 | 11562 ft | 335 kts | 179° |
| 2026-04-22 13:02 | 37.30459 | -6.06460 | 12485 ft | 337 kts | 179° |
| 2026-04-22 13:02 | 37.28076 | -6.06262 | 13489 ft | 341 kts | 180° |
| 2026-04-22 13:03 | 37.25712 | -6.06072 | 14289 ft | 349 kts | 180° |
| 2026-04-22 13:03 | 37.23232 | -6.05878 | 15185 ft | 356 kts | 180° |
| 2026-04-22 13:03 | 37.20744 | -6.05684 | 16060 ft | 361 kts | 180° |
| 2026-04-22 13:03 | 37.18219 | -6.05489 | 16932 ft | 366 kts | 180° |
| 2026-04-22 13:04 | 37.15693 | -6.05731 | 17718 ft | 365 kts | 198° |
| 2026-04-22 13:04 | 37.13368 | -6.06979 | 18526 ft | 365 kts | 214° |
| 2026-04-22 13:04 | 37.11347 | -6.08926 | 19314 ft | 369 kts | 221° |
| 2026-04-22 13:04 | 37.09379 | -6.11037 | 20002 ft | 376 kts | 222° |
| 2026-04-22 13:05 | 37.07382 | -6.13189 | 20744 ft | 381 kts | 222° |
| 2026-04-22 13:05 | 37.05345 | -6.15345 | 21433 ft | 386 kts | 221° |
| 2026-04-22 13:05 | 37.03269 | -6.17514 | 22083 ft | 391 kts | 221° |
| 2026-04-22 13:05 | 37.01166 | -6.19712 | 22715 ft | 396 kts | 222° |
| 2026-04-22 13:06 | 36.99050 | -6.21952 | 23342 ft | 401 kts | 222° |
| 2026-04-22 13:06 | 36.96914 | -6.24224 | 23915 ft | 406 kts | 222° |
| 2026-04-22 13:06 | 36.94751 | -6.26525 | 24484 ft | 410 kts | 222° |
| 2026-04-22 13:06 | 36.92569 | -6.28844 | 25079 ft | 413 kts | 223° |
| 2026-04-22 13:07 | 36.90370 | -6.31178 | 25658 ft | 416 kts | 223° |
| 2026-04-22 13:07 | 36.88151 | -6.33529 | 26196 ft | 420 kts | 223° |
| 2026-04-22 13:07 | 36.85916 | -6.35895 | 26723 ft | 423 kts | 223° |
| 2026-04-22 13:07 | 36.83662 | -6.38278 | 27240 ft | 426 kts | 223° |
| 2026-04-22 13:08 | 36.81393 | -6.40674 | 27718 ft | 429 kts | 223° |
| 2026-04-22 13:08 | 36.79138 | -6.43054 | 28185 ft | 432 kts | 223° |
| 2026-04-22 13:08 | 36.76806 | -6.45514 | 28633 ft | 435 kts | 223° |
| 2026-04-22 13:08 | 36.74518 | -6.47925 | 29047 ft | 438 kts | 223° |
| 2026-04-22 13:09 | 36.72152 | -6.50415 | 29486 ft | 440 kts | 223° |
| 2026-04-22 13:09 | 36.69805 | -6.52884 | 29922 ft | 442 kts | 223° |
| 2026-04-22 13:09 | 36.67489 | -6.55317 | 30471 ft | 440 kts | 223° |
| 2026-04-22 13:09 | 36.65156 | -6.57766 | 31091 ft | 437 kts | 223° |
| 2026-04-22 13:10 | 36.62839 | -6.60196 | 31666 ft | 434 kts | 223° |
| 2026-04-22 13:10 | 36.60531 | -6.62616 | 32172 ft | 434 kts | 223° |
| 2026-04-22 13:10 | 36.58225 | -6.65033 | 32645 ft | 433 kts | 223° |
| 2026-04-22 13:10 | 36.55922 | -6.67446 | 33135 ft | 432 kts | 223° |
| 2026-04-22 13:11 | 36.53626 | -6.69849 | 33625 ft | 431 kts | 223° |
| 2026-04-22 13:11 | 36.51336 | -6.72241 | 34128 ft | 429 kts | 224° |
| 2026-04-22 13:11 | 36.49054 | -6.74615 | 34622 ft | 427 kts | 223° |
| 2026-04-22 13:11 | 36.46772 | -6.76969 | 35058 ft | 426 kts | 223° |
| 2026-04-22 13:12 | 36.44488 | -6.79320 | 35449 ft | 427 kts | 223° |
| 2026-04-22 13:12 | 36.42203 | -6.81670 | 35882 ft | 426 kts | 223° |
| 2026-04-22 13:12 | 36.39927 | -6.84006 | 36323 ft | 424 kts | 223° |
| 2026-04-22 13:12 | 36.37655 | -6.86339 | 36706 ft | 424 kts | 223° |
| 2026-04-22 13:13 | 36.35383 | -6.88670 | 37084 ft | 423 kts | 223° |
| 2026-04-22 13:13 | 36.33122 | -6.90990 | 37562 ft | 420 kts | 223° |
| 2026-04-22 13:13 | 36.30880 | -6.93289 | 37990 ft | 418 kts | 223° |
| 2026-04-22 13:14 | 36.26423 | -6.97853 | 37995 ft | 412 kts | 223° |
| 2026-04-22 13:14 | 36.22009 | -7.02372 | 38006 ft | 412 kts | 223° |
| 2026-04-22 13:15 | 36.17591 | -7.06889 | 38010 ft | 412 kts | 223° |
| 2026-04-22 13:15 | 36.13163 | -7.11407 | 38004 ft | 413 kts | 223° |
| 2026-04-22 13:16 | 36.08730 | -7.15924 | 37999 ft | 413 kts | 223° |
| 2026-04-22 13:16 | 36.04290 | -7.20438 | 38002 ft | 413 kts | 223° |
| 2026-04-22 13:17 | 35.99850 | -7.24944 | 38002 ft | 413 kts | 223° |
| 2026-04-22 13:17 | 35.95414 | -7.29444 | 38000 ft | 412 kts | 224° |
| 2026-04-22 13:18 | 35.90981 | -7.33935 | 37999 ft | 412 kts | 223° |
| 2026-04-22 13:18 | 35.86549 | -7.38418 | 37999 ft | 412 kts | 223° |
| 2026-04-22 13:19 | 35.82114 | -7.42888 | 37998 ft | 411 kts | 223° |
| 2026-04-22 13:19 | 35.77668 | -7.47326 | 38001 ft | 411 kts | 223° |
| 2026-04-22 13:20 | 35.73221 | -7.51751 | 37998 ft | 411 kts | 223° |
| 2026-04-22 13:20 | 35.68779 | -7.56173 | 37997 ft | 411 kts | 223° |
| 2026-04-22 13:21 | 35.64340 | -7.60589 | 37989 ft | 410 kts | 223° |
| 2026-04-22 13:21 | 35.59900 | -7.64996 | 37992 ft | 410 kts | 223° |
| 2026-04-22 13:22 | 35.55460 | -7.69397 | 37992 ft | 410 kts | 223° |
| 2026-04-22 13:22 | 35.51017 | -7.73796 | 37989 ft | 410 kts | 223° |
| 2026-04-22 13:23 | 35.46571 | -7.78193 | 37980 ft | 410 kts | 223° |
| 2026-04-22 13:23 | 35.42123 | -7.82584 | 37981 ft | 410 kts | 223° |
| 2026-04-22 13:24 | 35.37687 | -7.86991 | 37980 ft | 410 kts | 223° |
| 2026-04-22 13:24 | 35.33267 | -7.91413 | 37982 ft | 410 kts | 223° |
| 2026-04-22 13:25 | 35.28839 | -7.95837 | 37983 ft | 411 kts | 223° |
| 2026-04-22 13:25 | 35.24404 | -8.00260 | 37983 ft | 411 kts | 223° |
| 2026-04-22 13:26 | 35.19967 | -8.04675 | 37995 ft | 411 kts | 223° |
| 2026-04-22 13:26 | 35.15536 | -8.09077 | 37988 ft | 410 kts | 223° |
| 2026-04-22 13:27 | 35.11110 | -8.13467 | 37991 ft | 410 kts | 223° |
| 2026-04-22 13:27 | 35.06683 | -8.17851 | 37990 ft | 409 kts | 223° |
| 2026-04-22 13:28 | 35.02262 | -8.22224 | 37991 ft | 409 kts | 223° |
| 2026-04-22 13:28 | 34.97843 | -8.26588 | 37989 ft | 408 kts | 223° |
| 2026-04-22 13:29 | 34.93431 | -8.30941 | 37991 ft | 408 kts | 223° |
| 2026-04-22 13:29 | 34.89051 | -8.35257 | 37987 ft | 408 kts | 223° |
| 2026-04-22 13:30 | 34.84636 | -8.39600 | 37982 ft | 408 kts | 223° |
| 2026-04-22 13:30 | 34.80215 | -8.43942 | 37982 ft | 409 kts | 223° |
| 2026-04-22 13:31 | 34.75787 | -8.48284 | 37983 ft | 409 kts | 223° |
| 2026-04-22 13:31 | 34.71352 | -8.52627 | 37982 ft | 410 kts | 223° |
| 2026-04-22 13:32 | 34.66912 | -8.56971 | 37982 ft | 410 kts | 223° |
| 2026-04-22 13:32 | 34.62434 | -8.61344 | 37981 ft | 411 kts | 222° |
| 2026-04-22 13:33 | 34.58734 | -8.64954 | 37982 ft | 411 kts | 222° |
| 2026-04-22 13:33 | 34.54281 | -8.69292 | 37981 ft | 410 kts | 222° |
| 2026-04-22 13:34 | 34.49831 | -8.73622 | 37982 ft | 410 kts | 222° |
| 2026-04-22 13:34 | 34.45382 | -8.77944 | 37981 ft | 410 kts | 222° |
| 2026-04-22 13:35 | 34.40930 | -8.82246 | 37978 ft | 409 kts | 222° |
| 2026-04-22 13:35 | 34.36471 | -8.86527 | 37982 ft | 409 kts | 222° |
| 2026-04-22 13:36 | 34.32022 | -8.90796 | 37980 ft | 408 kts | 222° |
| 2026-04-22 13:36 | 34.27574 | -8.95060 | 37981 ft | 408 kts | 222° |
| 2026-04-22 13:37 | 34.23128 | -8.99314 | 37981 ft | 407 kts | 222° |
| 2026-04-22 13:37 | 34.17975 | -9.04243 | 37981 ft | 406 kts | 222° |
| 2026-04-22 13:38 | 34.14262 | -9.07792 | 37984 ft | 406 kts | 222° |
| 2026-04-22 13:38 | 34.07610 | -9.14135 | 37983 ft | 406 kts | 222° |
| 2026-04-22 13:39 | 34.03174 | -9.18358 | 37977 ft | 406 kts | 222° |
| 2026-04-22 13:39 | 33.98736 | -9.22576 | 37967 ft | 406 kts | 222° |
| 2026-04-22 13:40 | 33.94295 | -9.26790 | 37958 ft | 406 kts | 222° |
| 2026-04-22 13:40 | 33.89893 | -9.30962 | 37968 ft | 405 kts | 222° |
| 2026-04-22 13:41 | 33.85459 | -9.35164 | 37952 ft | 406 kts | 222° |
| 2026-04-22 13:41 | 33.80996 | -9.39383 | 37959 ft | 405 kts | 222° |
| 2026-04-22 13:42 | 33.76564 | -9.43565 | 37961 ft | 405 kts | 222° |
| 2026-04-22 13:42 | 33.72140 | -9.47737 | 37958 ft | 404 kts | 222° |
| 2026-04-22 13:43 | 33.67720 | -9.51899 | 37955 ft | 404 kts | 222° |
| 2026-04-22 13:43 | 33.63301 | -9.56054 | 37958 ft | 404 kts | 222° |
| 2026-04-22 13:44 | 33.58880 | -9.60204 | 37959 ft | 404 kts | 222° |
| 2026-04-22 13:44 | 33.54458 | -9.64351 | 37958 ft | 403 kts | 222° |
| 2026-04-22 13:45 | 33.50036 | -9.68496 | 37958 ft | 404 kts | 222° |
| 2026-04-22 13:45 | 33.45611 | -9.72634 | 37965 ft | 404 kts | 222° |
| 2026-04-22 13:46 | 33.41182 | -9.76771 | 37964 ft | 404 kts | 222° |
| 2026-04-22 13:46 | 33.36779 | -9.80877 | 37969 ft | 404 kts | 222° |
| 2026-04-22 13:47 | 33.32317 | -9.85034 | 37956 ft | 404 kts | 222° |
| 2026-04-22 13:47 | 33.27912 | -9.89131 | 37962 ft | 404 kts | 222° |
| 2026-04-22 13:48 | 33.23470 | -9.93260 | 37958 ft | 405 kts | 222° |
| 2026-04-22 13:48 | 33.19024 | -9.97386 | 37971 ft | 405 kts | 222° |
| 2026-04-22 13:49 | 33.14577 | -10.01508 | 37965 ft | 405 kts | 222° |
| 2026-04-22 13:49 | 33.10128 | -10.05626 | 37976 ft | 404 kts | 222° |
| 2026-04-22 13:50 | 33.05654 | -10.09763 | 37966 ft | 404 kts | 222° |
| 2026-04-22 13:50 | 33.01214 | -10.13861 | 37968 ft | 403 kts | 222° |
| 2026-04-22 13:51 | 32.96783 | -10.17941 | 37962 ft | 402 kts | 222° |
| 2026-04-22 13:51 | 32.92361 | -10.22008 | 37965 ft | 401 kts | 222° |
| 2026-04-22 13:52 | 32.87943 | -10.26066 | 37957 ft | 401 kts | 223° |
| 2026-04-22 13:52 | 32.83530 | -10.30117 | 37962 ft | 401 kts | 223° |
| 2026-04-22 13:53 | 32.79116 | -10.34165 | 37963 ft | 401 kts | 223° |
| 2026-04-22 13:53 | 32.74728 | -10.38183 | 37959 ft | 401 kts | 223° |
| 2026-04-22 13:54 | 32.70275 | -10.42255 | 37960 ft | 401 kts | 223° |
| 2026-04-22 13:54 | 32.65874 | -10.46275 | 37965 ft | 402 kts | 223° |
| 2026-04-22 13:55 | 32.61409 | -10.50348 | 37966 ft | 403 kts | 223° |
| 2026-04-22 13:55 | 32.56966 | -10.54395 | 37959 ft | 403 kts | 223° |
| 2026-04-22 13:56 | 32.52520 | -10.58440 | 37956 ft | 403 kts | 223° |
| 2026-04-22 13:56 | 32.48070 | -10.62483 | 37960 ft | 403 kts | 223° |
| 2026-04-22 13:57 | 32.43618 | -10.66522 | 37960 ft | 403 kts | 223° |
| 2026-04-22 13:57 | 32.39199 | -10.70524 | 37963 ft | 403 kts | 223° |
| 2026-04-22 13:58 | 32.34752 | -10.74554 | 37968 ft | 403 kts | 223° |
| 2026-04-22 13:58 | 32.30314 | -10.78570 | 37967 ft | 402 kts | 223° |
| 2026-04-22 13:59 | 32.25871 | -10.82576 | 37964 ft | 401 kts | 223° |
| 2026-04-22 13:59 | 32.21441 | -10.86572 | 37957 ft | 401 kts | 223° |
| 2026-04-22 14:00 | 32.17012 | -10.90563 | 37964 ft | 400 kts | 223° |
| 2026-04-22 14:00 | 32.12578 | -10.94549 | 37969 ft | 401 kts | 223° |
| 2026-04-22 14:01 | 32.08151 | -10.98526 | 37955 ft | 400 kts | 223° |
| 2026-04-22 14:01 | 32.03716 | -11.02500 | 37964 ft | 401 kts | 223° |
| 2026-04-22 14:02 | 31.99280 | -11.06476 | 37967 ft | 401 kts | 223° |
| 2026-04-22 14:02 | 31.94853 | -11.10440 | 37960 ft | 399 kts | 224° |
| 2026-04-22 14:03 | 31.90439 | -11.14386 | 37966 ft | 398 kts | 224° |
| 2026-04-22 14:03 | 31.86026 | -11.18322 | 37972 ft | 398 kts | 224° |
| 2026-04-22 14:04 | 31.81623 | -11.22257 | 37968 ft | 397 kts | 224° |
| 2026-04-22 14:04 | 31.77225 | -11.26174 | 37981 ft | 396 kts | 224° |
| 2026-04-22 14:05 | 31.72832 | -11.30083 | 37969 ft | 396 kts | 224° |
| 2026-04-22 14:06 | 31.66256 | -11.35938 | 37977 ft | 395 kts | 224° |
| 2026-04-22 14:06 | 31.61878 | -11.39830 | 37958 ft | 394 kts | 224° |
| 2026-04-22 14:07 | 31.57512 | -11.43714 | 37960 ft | 394 kts | 224° |
| 2026-04-22 14:07 | 31.53133 | -11.47603 | 37973 ft | 395 kts | 224° |
| 2026-04-22 14:08 | 31.48752 | -11.51486 | 37963 ft | 395 kts | 224° |
| 2026-04-22 14:08 | 31.44366 | -11.55371 | 37970 ft | 395 kts | 224° |
| 2026-04-22 14:09 | 31.39974 | -11.59253 | 37981 ft | 395 kts | 224° |
| 2026-04-22 14:09 | 31.35580 | -11.63131 | 37968 ft | 396 kts | 224° |
| 2026-04-22 14:10 | 31.31185 | -11.67006 | 37960 ft | 395 kts | 224° |
| 2026-04-22 14:10 | 31.26797 | -11.70872 | 37977 ft | 395 kts | 224° |
| 2026-04-22 14:11 | 31.22409 | -11.74737 | 37963 ft | 395 kts | 224° |
| 2026-04-22 14:11 | 31.18018 | -11.78595 | 37978 ft | 395 kts | 224° |
| 2026-04-22 14:12 | 31.13628 | -11.82449 | 37972 ft | 394 kts | 224° |
| 2026-04-22 14:12 | 31.09248 | -11.86290 | 37978 ft | 394 kts | 224° |
| 2026-04-22 14:13 | 31.04871 | -11.90126 | 37971 ft | 393 kts | 224° |
| 2026-04-22 14:13 | 31.00498 | -11.93961 | 37981 ft | 393 kts | 224° |
| 2026-04-22 14:14 | 30.96132 | -11.97773 | 37962 ft | 391 kts | 224° |
| 2026-04-22 14:14 | 30.91785 | -12.01567 | 37983 ft | 389 kts | 224° |
| 2026-04-22 14:15 | 30.87458 | -12.05339 | 37981 ft | 388 kts | 225° |
| 2026-04-22 14:15 | 30.83866 | -12.08463 | 37972 ft | 387 kts | 225° |
| 2026-04-22 14:16 | 30.79553 | -12.12217 | 37977 ft | 387 kts | 225° |
| 2026-04-22 14:16 | 30.75236 | -12.15964 | 37995 ft | 388 kts | 225° |
| 2026-04-22 14:17 | 30.70916 | -12.19714 | 37989 ft | 386 kts | 225° |
| 2026-04-22 14:17 | 30.66602 | -12.23454 | 37983 ft | 386 kts | 225° |
| 2026-04-22 14:18 | 30.62307 | -12.27171 | 37992 ft | 384 kts | 225° |
| 2026-04-22 14:18 | 30.58028 | -12.30895 | 37987 ft | 384 kts | 225° |
| 2026-04-22 14:19 | 30.53715 | -12.34611 | 37984 ft | 387 kts | 225° |
| 2026-04-22 14:19 | 30.49388 | -12.38341 | 37977 ft | 388 kts | 225° |
| 2026-04-22 14:20 | 30.42884 | -12.43930 | 37972 ft | 387 kts | 225° |
| 2026-04-22 14:20 | 30.38552 | -12.47642 | 37979 ft | 387 kts | 225° |
| 2026-04-22 14:21 | 30.32085 | -12.53179 | 37985 ft | 383 kts | 225° |
| 2026-04-22 14:22 | 30.25656 | -12.58684 | 37984 ft | 385 kts | 225° |
| 2026-04-22 14:23 | 30.19186 | -12.64215 | 37989 ft | 386 kts | 225° |
| 2026-04-22 14:23 | 30.14840 | -12.67883 | 37988 ft | 386 kts | 225° |
| 2026-04-22 14:24 | 30.10521 | -12.71566 | 37989 ft | 387 kts | 223° |
| 2026-04-22 14:24 | 30.05800 | -12.74709 | 37991 ft | 394 kts | 218° |
| 2026-04-22 14:25 | 30.00984 | -12.77749 | 37986 ft | 394 kts | 218° |
| 2026-04-22 14:25 | 29.96200 | -12.80777 | 37631 ft | 386 kts | 219° |
| 2026-04-22 14:25 | 29.93869 | -12.82258 | 37237 ft | 379 kts | 219° |
| 2026-04-22 14:26 | 29.91586 | -12.83714 | 36887 ft | 372 kts | 219° |
| 2026-04-22 14:26 | 29.89339 | -12.85147 | 36527 ft | 367 kts | 219° |
| 2026-04-22 14:26 | 29.87125 | -12.86562 | 36180 ft | 361 kts | 218° |
| 2026-04-22 14:26 | 29.84940 | -12.87958 | 35817 ft | 357 kts | 218° |
| 2026-04-22 14:27 | 29.82778 | -12.89338 | 35446 ft | 354 kts | 218° |
| 2026-04-22 14:27 | 29.80639 | -12.90703 | 35078 ft | 349 kts | 218° |
| 2026-04-22 14:27 | 29.78525 | -12.92050 | 34719 ft | 347 kts | 217° |
| 2026-04-22 14:27 | 29.76402 | -12.93408 | 34378 ft | 355 kts | 217° |
| 2026-04-22 14:28 | 29.74198 | -12.94823 | 34020 ft | 370 kts | 216° |
| 2026-04-22 14:28 | 29.71929 | -12.96273 | 33625 ft | 372 kts | 216° |
| 2026-04-22 14:28 | 29.69675 | -12.97702 | 33230 ft | 368 kts | 215° |
| 2026-04-22 14:28 | 29.67447 | -12.99111 | 32853 ft | 364 kts | 215° |
| 2026-04-22 14:29 | 29.65241 | -13.00507 | 32479 ft | 360 kts | 215° |
| 2026-04-22 14:29 | 29.63060 | -13.01889 | 32119 ft | 356 kts | 214° |
| 2026-04-22 14:29 | 29.60899 | -13.03259 | 31753 ft | 353 kts | 214° |
| 2026-04-22 14:29 | 29.58761 | -13.04614 | 31396 ft | 349 kts | 214° |
| 2026-04-22 14:30 | 29.56641 | -13.05958 | 31045 ft | 346 kts | 214° |
| 2026-04-22 14:30 | 29.54544 | -13.07287 | 30695 ft | 343 kts | 213° |
| 2026-04-22 14:30 | 29.52487 | -13.08590 | 30352 ft | 341 kts | 213° |
| 2026-04-22 14:30 | 29.50419 | -13.09900 | 30017 ft | 338 kts | 212° |
| 2026-04-22 14:31 | 29.48367 | -13.11199 | 29665 ft | 335 kts | 212° |
| 2026-04-22 14:31 | 29.46331 | -13.12487 | 29312 ft | 334 kts | 212° |
| 2026-04-22 14:31 | 29.44255 | -13.13800 | 28965 ft | 341 kts | 212° |
| 2026-04-22 14:31 | 29.42170 | -13.15121 | 28611 ft | 352 kts | 212° |
| 2026-04-22 14:32 | 29.40019 | -13.16479 | 28224 ft | 352 kts | 212° |
| 2026-04-22 14:32 | 29.37885 | -13.17823 | 27841 ft | 348 kts | 212° |
| 2026-04-22 14:32 | 29.35772 | -13.19138 | 27470 ft | 344 kts | 210° |
| 2026-04-22 14:32 | 29.33638 | -13.20348 | 27093 ft | 341 kts | 208° |
| 2026-04-22 14:33 | 29.31505 | -13.21504 | 26739 ft | 337 kts | 208° |
| 2026-04-22 14:33 | 29.29398 | -13.22640 | 26398 ft | 333 kts | 208° |
| 2026-04-22 14:33 | 29.27314 | -13.23772 | 26053 ft | 329 kts | 208° |
| 2026-04-22 14:33 | 29.25260 | -13.24895 | 25713 ft | 326 kts | 208° |
| 2026-04-22 14:34 | 29.23228 | -13.26009 | 25372 ft | 322 kts | 208° |
| 2026-04-22 14:34 | 29.21187 | -13.27128 | 25034 ft | 318 kts | 208° |
| 2026-04-22 14:34 | 29.19212 | -13.28211 | 24624 ft | 312 kts | 208° |
| 2026-04-22 14:34 | 29.17239 | -13.29292 | 24251 ft | 321 kts | 208° |
| 2026-04-22 14:35 | 29.15199 | -13.30411 | 23811 ft | 325 kts | 208° |
| 2026-04-22 14:35 | 29.13157 | -13.31528 | 23118 ft | 326 kts | 208° |
| 2026-04-22 14:35 | 29.11112 | -13.32647 | 22328 ft | 326 kts | 207° |
| 2026-04-22 14:35 | 29.09040 | -13.33781 | 21241 ft | 335 kts | 207° |
| 2026-04-22 14:36 | 29.06918 | -13.34942 | 20110 ft | 341 kts | 207° |
| 2026-04-22 14:36 | 29.04762 | -13.36120 | 19127 ft | 344 kts | 206° |
| 2026-04-22 14:36 | 29.02664 | -13.37264 | 18895 ft | 323 kts | 206° |
| 2026-04-22 14:36 | 29.00696 | -13.38336 | 18623 ft | 307 kts | 206° |
| 2026-04-22 14:37 | 28.98785 | -13.39379 | 17993 ft | 303 kts | 206° |
| 2026-04-22 14:37 | 28.96843 | -13.40332 | 17281 ft | 304 kts | 202° |
| 2026-04-22 14:37 | 28.94852 | -13.41183 | 16750 ft | 306 kts | 201° |
| 2026-04-22 14:37 | 28.92858 | -13.42007 | 16334 ft | 305 kts | 201° |
| 2026-04-22 14:38 | 28.90908 | -13.42813 | 16003 ft | 301 kts | 201° |
| 2026-04-22 14:38 | 28.88917 | -13.43643 | 15683 ft | 297 kts | 201° |
| 2026-04-22 14:38 | 28.86987 | -13.44453 | 15366 ft | 293 kts | 201° |
| 2026-04-22 14:38 | 28.85087 | -13.45255 | 15070 ft | 289 kts | 201° |
| 2026-04-22 14:39 | 28.83214 | -13.46048 | 14780 ft | 285 kts | 201° |
| 2026-04-22 14:39 | 28.81365 | -13.46833 | 14486 ft | 282 kts | 201° |
| 2026-04-22 14:39 | 28.79539 | -13.47609 | 14205 ft | 278 kts | 201° |
| 2026-04-22 14:40 | 28.76554 | -13.48879 | 13742 ft | 272 kts | 201° |
| 2026-04-22 14:40 | 28.74195 | -13.49883 | 13371 ft | 269 kts | 201° |
| 2026-04-22 14:40 | 28.72454 | -13.50623 | 13099 ft | 266 kts | 201° |
| 2026-04-22 14:40 | 28.70731 | -13.51357 | 12837 ft | 264 kts | 201° |
| 2026-04-22 14:41 | 28.68995 | -13.52095 | 12572 ft | 268 kts | 201° |
| 2026-04-22 14:41 | 28.67233 | -13.52845 | 12296 ft | 273 kts | 201° |
| 2026-04-22 14:41 | 28.65438 | -13.53609 | 12017 ft | 277 kts | 201° |
| 2026-04-22 14:41 | 28.63632 | -13.54376 | 11712 ft | 276 kts | 201° |
| 2026-04-22 14:42 | 28.61848 | -13.55133 | 11434 ft | 272 kts | 201° |
| 2026-04-22 14:42 | 28.60091 | -13.55879 | 11152 ft | 268 kts | 201° |
| 2026-04-22 14:42 | 28.58357 | -13.56615 | 10872 ft | 265 kts | 201° |
| 2026-04-22 14:42 | 28.56643 | -13.57343 | 10598 ft | 261 kts | 201° |
| 2026-04-22 14:43 | 28.54948 | -13.58062 | 10329 ft | 258 kts | 201° |
| 2026-04-22 14:43 | 28.53274 | -13.58771 | 10128 ft | 253 kts | 201° |
| 2026-04-22 14:43 | 28.51634 | -13.59467 | 10020 ft | 252 kts | 201° |
| 2026-04-22 14:43 | 28.49968 | -13.60174 | 9756 ft | 260 kts | 201° |
| 2026-04-22 14:44 | 28.48251 | -13.60902 | 9491 ft | 267 kts | 201° |
| 2026-04-22 14:44 | 28.46501 | -13.61643 | 9211 ft | 268 kts | 201° |
| 2026-04-22 14:44 | 28.44766 | -13.62377 | 8924 ft | 264 kts | 201° |
| 2026-04-22 14:44 | 28.43055 | -13.63101 | 8649 ft | 261 kts | 201° |
| 2026-04-22 14:45 | 28.41365 | -13.63816 | 8381 ft | 257 kts | 201° |
| 2026-04-22 14:45 | 28.39699 | -13.64521 | 8118 ft | 254 kts | 201° |
| 2026-04-22 14:45 | 28.38060 | -13.65213 | 7981 ft | 247 kts | 201° |
| 2026-04-22 14:45 | 28.36480 | -13.65881 | 7864 ft | 239 kts | 201° |
| 2026-04-22 14:46 | 28.34885 | -13.66355 | 7674 ft | 238 kts | 186° |
| 2026-04-22 14:46 | 28.33217 | -13.66502 | 7475 ft | 243 kts | 185° |
| 2026-04-22 14:46 | 28.31494 | -13.66642 | 7217 ft | 253 kts | 185° |
| 2026-04-22 14:46 | 28.29737 | -13.66798 | 6941 ft | 253 kts | 186° |
| 2026-04-22 14:47 | 28.27989 | -13.66957 | 6665 ft | 251 kts | 186° |
| 2026-04-22 14:47 | 28.26257 | -13.67119 | 6404 ft | 249 kts | 186° |
| 2026-04-22 14:47 | 28.24541 | -13.67282 | 6146 ft | 246 kts | 186° |
| 2026-04-22 14:47 | 28.22903 | -13.67739 | 5878 ft | 243 kts | 210° |
| 2026-04-22 14:48 | 28.21716 | -13.69054 | 5642 ft | 240 kts | 239° |
| 2026-04-22 14:48 | 28.21177 | -13.70823 | 5388 ft | 239 kts | 262° |
| 2026-04-22 14:48 | 28.21240 | -13.72693 | 5151 ft | 237 kts | 276° |
| 2026-04-22 14:48 | 28.21428 | -13.74524 | 4902 ft | 236 kts | 276° |
| 2026-04-22 14:49 | 28.21618 | -13.76392 | 4649 ft | 234 kts | 276° |
| 2026-04-22 14:49 | 28.21814 | -13.78195 | 4428 ft | 233 kts | 278° |
| 2026-04-22 14:49 | 28.22062 | -13.80017 | 4227 ft | 232 kts | 278° |
| 2026-04-22 14:49 | 28.22309 | -13.81811 | 4029 ft | 229 kts | 279° |
| 2026-04-22 14:50 | 28.22553 | -13.83582 | 3832 ft | 226 kts | 279° |
| 2026-04-22 14:50 | 28.22853 | -13.85287 | 3659 ft | 216 kts | 292° |
| 2026-04-22 14:50 | 28.23816 | -13.86486 | 3472 ft | 206 kts | 336° |
| 2026-04-22 14:50 | 28.25169 | -13.86749 | 3346 ft | 192 kts | 356° |
| 2026-04-22 14:51 | 28.26473 | -13.86914 | 3145 ft | 185 kts | 355° |
| 2026-04-22 14:51 | 28.27731 | -13.86952 | 2967 ft | 177 kts | 1° |
| 2026-04-22 14:51 | 28.28939 | -13.86920 | 2811 ft | 170 kts | 2° |
| 2026-04-22 14:51 | 28.30111 | -13.86881 | 2722 ft | 172 kts | 3° |
| 2026-04-22 14:52 | 28.31356 | -13.86839 | 2558 ft | 183 kts | 3° |
| 2026-04-22 14:52 | 28.32623 | -13.86796 | 2320 ft | 182 kts | 3° |
| 2026-04-22 14:52 | 28.33882 | -13.86754 | 2078 ft | 179 kts | 3° |
| 2026-04-22 14:52 | 28.35087 | -13.86711 | 1836 ft | 166 kts | 2° |
| 2026-04-22 14:53 | 28.36191 | -13.86675 | 1647 ft | 155 kts | 4° |
| 2026-04-22 14:53 | 28.37253 | -13.86642 | 1435 ft | 151 kts | 4° |
| 2026-04-22 14:53 | 28.38312 | -13.86627 | 1239 ft | 154 kts | 2° |
| 2026-04-22 14:53 | 28.39383 | -13.86586 | 1028 ft | 153 kts | 4° |
| 2026-04-22 14:54 | 28.40445 | -13.86537 | 823 ft | 151 kts | 4° |
| 2026-04-22 14:54 | 28.41483 | -13.86494 | 636 ft | 148 kts | 4° |
| 2026-04-22 14:54 | 28.42513 | -13.86460 | 423 ft | 145 kts | 2° |
| 2026-04-22 14:54 | 28.43508 | -13.86437 | 220 ft | 142 kts | 4° |
| 2026-04-22 14:55 | 28.44479 | -13.86401 | 73 ft | 138 kts | 3° |
| 2026-04-22 14:55 | 28.45331 | -13.86373 | 79 ft | 102 kts | 1° |
| 2026-04-22 14:55 | 28.45850 | -13.86353 | 89 ft | 38 kts | 1° |
| 2026-04-22 14:55 | 28.46077 | -13.86435 | 93 ft | 23 kts | 332° |
| 2026-04-22 14:56 | 28.46134 | -13.86524 | 98 ft | 15 kts | 235° |
| 2026-04-22 14:56 | 28.46000 | -13.86547 | 97 ft | 23 kts | 181° |
| 2026-04-22 14:56 | 28.45835 | -13.86552 | 97 ft | 24 kts | 181° |
| 2026-04-22 14:56 | 28.45674 | -13.86557 | 96 ft | 23 kts | 181° |
| 2026-04-22 14:57 | 28.45519 | -13.86561 | 95 ft | 22 kts | 181° |
| 2026-04-22 14:57 | 28.45368 | -13.86566 | 95 ft | 21 kts | 182° |
| 2026-04-22 14:57 | 28.45221 | -13.86571 | 94 ft | 21 kts | 181° |
| 2026-04-22 14:57 | 28.45124 | -13.86579 | 95 ft | 19 kts | 199° |
| 2026-04-22 14:58 | 28.45099 | -13.86666 | 97 ft | 3 kts | 272° |
| 2026-04-22 14:58 | 28.45099 | -13.86683 | 97 ft | 0 kts | 271° |
| 2026-04-22 14:58 | 28.45099 | -13.86685 | 97 ft | 2 kts | 271° |
| 2026-04-22 14:58 | 28.45122 | -13.86738 | 98 ft | 10 kts | 334° |
| 2026-04-22 14:59 | 28.45208 | -13.86739 | 100 ft | 15 kts | 2° |
| 2026-04-22 14:59 | 28.45299 | -13.86736 | 98 ft | 13 kts | 1° |
| 2026-04-22 14:59 | 28.45368 | -13.86737 | 97 ft | 5 kts | 345° |
| 2026-04-22 14:59 | 28.45388 | -13.86793 | 98 ft | 12 kts | 272° |
| 2026-04-22 15:00 | 28.45385 | -13.86824 | 98 ft | 2 kts | 271° |
| 2026-04-22 15:00 | 28.45385 | -13.86835 | 98 ft | 0 kts | 271° |
| 2026-04-22 15:00 | 28.45384 | -13.86815 | 98 ft | 8 kts | 273° |
| 2026-04-22 15:00 | 28.45385 | -13.86824 | 98 ft | 4 kts | 272° |
| 2026-04-22 15:01 | 28.45385 | -13.86833 | 98 ft | 1 kts | 272° |